Bookmark and Share
Track history (hours):
 

CMA CGM Verlaine

Last reported at 2014-Apr-16 19:33 UTC. Time now 2014-Apr-19 05:18 UTC.
Position N 19°48' W 096°12'.

Length 300 m; beam 40 m; draft 14.5 m.

Type: Ship. MMSI: 211378820.

NotesDate/timePositionNaut miles runAvg speedWind from/ knotsBaromVisibWave heightAir tempDewpointWater temp
2014-Apr-16 19:33N 19°48' W 096°12'1211.7
2014-Apr-16 18:33N 19°38' W 096°07'1212.3
2014-Apr-16 17:33N 19°27' W 096°01'1211.8
2014-Apr-16 16:34N 19°15' W 095°58'1010.1
2014-Apr-16 15:33N 19°12' W 096°08'0 0.4
2014-Apr-16 14:33N 19°13' W 096°08'0 0.0
2014-Apr-16 13:32N 19°13' W 096°08'0 0.0
2014-Apr-16 12:32N 19°13' W 096°08'0 0.0
2014-Apr-16 11:31N 19°13' W 096°08'0 0.0
2014-Apr-16 10:31N 19°13' W 096°08'0 0.0
2014-Apr-16 09:33N 19°13' W 096°08'0 0.0
2014-Apr-16 08:30N 19°13' W 096°08'0 0.0
2014-Apr-16 07:33N 19°13' W 096°08'0 0.0
2014-Apr-16 06:32N 19°13' W 096°08'0 0.0
2014-Apr-16 05:23N 19°13' W 096°08'0 0.0
2014-Apr-16 04:31N 19°13' W 096°08'0 0.0
2014-Apr-16 03:31N 19°13' W 096°08'0 0.0
2014-Apr-16 02:31N 19°13' W 096°08'0 0.0
2014-Apr-16 01:27N 19°13' W 096°08'0 0.0
2014-Apr-16 00:33N 19°13' W 096°08'0 0.0
2014-Apr-15 23:32N 19°13' W 096°08'0 0.0
2014-Apr-15 22:32N 19°13' W 096°08'0 0.0
2014-Apr-15 21:31N 19°13' W 096°08'0 0.0
2014-Apr-15 20:31N 19°13' W 096°08'0 0.0
2014-Apr-15 19:34N 19°13' W 096°08'0 0.0
2014-Apr-15 18:33N 19°13' W 096°08'0 0.0
2014-Apr-15 17:33N 19°13' W 096°08'0 0.0
2014-Apr-15 16:32N 19°13' W 096°08'0 0.0
2014-Apr-15 15:32N 19°13' W 096°08'0 0.0
2014-Apr-15 14:31N 19°13' W 096°08'0 0.0
2014-Apr-15 12:31N 19°13' W 096°08'0 0.0
2014-Apr-15 11:34N 19°13' W 096°08'0 0.0
2014-Apr-15 10:34N 19°13' W 096°08'0 0.0
2014-Apr-15 09:33N 19°13' W 096°08'0 0.0
2014-Apr-15 08:33N 19°13' W 096°08'0 0.0
2014-Apr-15 07:32N 19°13' W 096°08'0 0.0
2014-Apr-15 06:32N 19°13' W 096°08'0 0.0
2014-Apr-15 05:31N 19°13' W 096°08'0 0.0
2014-Apr-15 03:30N 19°13' W 096°08'0 0.0
2014-Apr-15 02:33N 19°13' W 096°08'0 0.0
2014-Apr-15 01:29N 19°13' W 096°08'0 0.0
2014-Apr-14 23:32N 19°13' W 096°08'0 0.0
2014-Apr-14 22:31N 19°13' W 096°08'0 0.0
2014-Apr-14 21:34N 19°13' W 096°08'0 0.0
2014-Apr-14 20:33N 19°13' W 096°08'0 0.0
2014-Apr-14 19:33N 19°13' W 096°08'  
2014-Apr-12 06:19N 25°17' W 080°00'1115.1
2014-Apr-12 05:33N 25°28' W 080°00'1515.0
2014-Apr-12 04:34N 25°43' W 080°00'1515.3
2014-Apr-12 03:34N 25°58' W 080°00'9 9.0
2014-Apr-12 02:33N 26°05' W 080°07'1 1.0
2014-Apr-12 01:31N 26°04' W 080°07'0 0.0
2014-Apr-12 00:25N 26°04' W 080°07'0 0.0
2014-Apr-11 23:33N 26°04' W 080°07'0 0.0
2014-Apr-11 22:27N 26°04' W 080°07'0 0.0
2014-Apr-11 21:32N 26°04' W 080°07'0 0.0
2014-Apr-11 20:33N 26°04' W 080°07'0 0.0
2014-Apr-11 19:32N 26°04' W 080°07'0 0.0
2014-Apr-11 18:31N 26°04' W 080°07'0 0.0
2014-Apr-11 17:25N 26°04' W 080°07'0 0.0
2014-Apr-11 16:33N 26°04' W 080°07'0 0.0
2014-Apr-11 15:27N 26°04' W 080°07'0 0.0
2014-Apr-11 14:32N 26°04' W 080°07'0 0.0
2014-Apr-11 13:29N 26°04' W 080°07'0 0.0
2014-Apr-11 12:32N 26°04' W 080°07'0 0.0
2014-Apr-11 11:28N 26°04' W 080°07'0 0.0
2014-Apr-11 10:25N 26°04' W 080°07'1 1.0
2014-Apr-11 09:33N 26°05' W 080°07'7 6.8
2014-Apr-11 08:33N 26°07' W 079°60'1312.6
2014-Apr-11 07:33N 26°11' W 079°46'1212.1
2014-Apr-11 06:33N 26°15' W 079°34'1212.3
2014-Apr-11 05:33N 26°19' W 079°20'  
2014-Apr-08 12:00N 26°42' W 071°24'60916.9 160 / 251018.010.8 1.026.021.024.0
2014-Apr-07 00:00N 28°54' W 060°12'   variable / 21023.010.8 22.517.223.0

Dump ship's entire track history

sailing weather and tide predictions

CMA CGM Verlaine — DASO — position and weather